createdAt,value
2022-09-09T00:01:53.705Z,21.94
2022-09-09T00:04:27.497Z,21.98
2022-09-09T00:07:04.447Z,21.94
2022-09-09T00:09:33.008Z,21.87
2022-09-09T00:12:04.336Z,21.80
2022-09-09T00:14:36.804Z,21.72
2022-09-09T00:17:05.847Z,21.68
2022-09-09T00:19:35.462Z,21.64
2022-09-09T00:22:11.167Z,21.35
2022-09-09T00:24:40.771Z,21.37
2022-09-09T00:27:09.309Z,21.46
2022-09-09T00:29:41.007Z,21.15
2022-09-09T00:32:13.759Z,21.19
2022-09-09T00:34:50.739Z,21.32
2022-09-09T00:37:20.557Z,21.27
2022-09-09T00:39:49.041Z,21.27
2022-09-09T00:42:18.475Z,21.22
2022-09-09T00:44:54.227Z,21.20
2022-09-09T00:47:43.850Z,21.20
2022-09-09T00:50:41.839Z,21.18
2022-09-09T00:53:19.352Z,21.04
2022-09-09T00:55:48.933Z,21.14
2022-09-09T00:58:16.689Z,21.16
2022-09-09T01:00:45.412Z,20.98
2022-09-09T01:03:25.509Z,21.06
2022-09-09T01:05:58.949Z,21.27
2022-09-09T01:08:45.441Z,21.31
2022-09-09T01:11:14.989Z,21.37
2022-09-09T01:13:42.585Z,21.43
2022-09-09T01:16:10.726Z,21.49
2022-09-09T01:18:39.665Z,21.54
2022-09-09T01:21:11.700Z,21.56
2022-09-09T01:24:07.773Z,21.63
2022-09-09T01:26:37.102Z,21.60
2022-09-09T01:29:04.927Z,21.34
2022-09-09T01:31:37.717Z,21.62
2022-09-09T01:34:10.780Z,21.58
2022-09-09T01:36:41.190Z,21.56
2022-09-09T01:39:16.731Z,21.49
2022-09-09T01:41:45.836Z,21.43
2022-09-09T01:44:13.561Z,21.36
2022-09-09T01:46:41.143Z,21.37
2022-09-09T01:49:08.970Z,21.36
2022-09-09T01:51:36.772Z,21.33
2022-09-09T01:54:04.453Z,21.26
2022-09-09T01:56:38.069Z,21.20
2022-09-09T01:59:13.474Z,21.13
2022-09-09T02:02:02.218Z,21.15
2022-09-09T02:04:37.937Z,21.09
2022-09-09T02:07:05.805Z,21.08
2022-09-09T02:09:33.592Z,20.99
2022-09-09T02:12:04.577Z,20.90
2022-09-09T02:14:36.756Z,20.90
2022-09-09T02:17:06.173Z,20.59
2022-09-09T02:19:34.647Z,20.82
2022-09-09T02:22:02.485Z,20.85
2022-09-09T02:24:30.724Z,20.81
2022-09-09T02:26:58.499Z,20.85
2022-09-09T02:29:28.021Z,20.88
2022-09-09T02:31:57.443Z,20.87
2022-09-09T02:34:25.216Z,20.85
2022-09-09T02:36:52.880Z,20.94
2022-09-09T02:39:20.888Z,20.96
2022-09-09T02:41:48.682Z,21.01
2022-09-09T02:44:17.845Z,21.03
2022-09-09T02:46:56.205Z,21.05
2022-09-09T02:49:29.824Z,20.70
2022-09-09T02:54:29.118Z,20.91
2022-09-09T02:56:57.329Z,21.02
2022-09-09T02:59:25.134Z,20.99
2022-09-09T03:01:54.222Z,20.97
2022-09-09T03:04:22.187Z,20.94
2022-09-09T03:06:51.192Z,20.93
2022-09-09T03:09:19.034Z,20.95
2022-09-09T03:11:46.624Z,20.93
2022-09-09T03:14:14.286Z,20.88
2022-09-09T03:16:43.317Z,20.87
2022-09-09T03:19:12.002Z,20.85
2022-09-09T03:21:43.740Z,20.82
2022-09-09T03:24:13.146Z,20.81
2022-09-09T03:26:41.710Z,20.74
2022-09-09T03:29:10.054Z,20.68
2022-09-09T03:31:37.834Z,20.72
2022-09-09T03:34:28.846Z,20.64
2022-09-09T03:36:56.569Z,20.71
2022-09-09T03:39:25.667Z,20.71
2022-09-09T03:41:53.372Z,20.72
2022-09-09T03:44:20.949Z,20.75
2022-09-09T03:46:48.832Z,20.65
2022-09-09T03:49:16.354Z,20.73
2022-09-09T03:51:44.153Z,20.71
2022-09-09T03:54:11.779Z,20.72
2022-09-09T03:56:42.425Z,20.68
2022-09-09T03:59:10.588Z,20.68
2022-09-09T04:01:38.183Z,20.63
2022-09-09T04:04:05.860Z,20.71
2022-09-09T04:06:33.491Z,20.64
2022-09-09T04:09:03.283Z,20.70
2022-09-09T04:11:30.867Z,20.68
2022-09-09T04:13:59.851Z,20.72
2022-09-09T04:16:27.638Z,20.74
2022-09-09T04:18:56.973Z,20.71
2022-09-09T04:21:24.538Z,20.70
2022-09-09T04:23:52.235Z,20.69
2022-09-09T04:26:20.121Z,20.71
2022-09-09T04:28:47.910Z,20.75
2022-09-09T04:31:18.817Z,20.73
2022-09-09T04:33:47.266Z,20.77
2022-09-09T04:36:15.199Z,20.76
2022-09-09T04:38:42.812Z,20.76
2022-09-09T04:41:12.121Z,20.62
2022-09-09T04:43:39.701Z,20.80
2022-09-09T04:46:07.581Z,20.85
2022-09-09T04:48:38.941Z,20.75
2022-09-09T04:51:07.457Z,20.90
2022-09-09T04:53:35.456Z,20.93
2022-09-09T04:56:03.823Z,20.89
2022-09-09T04:58:31.463Z,20.89
2022-09-09T05:01:05.847Z,20.95
2022-09-09T05:03:33.545Z,20.95
2022-09-09T05:06:07.408Z,20.98
2022-09-09T05:08:35.262Z,21.04
2022-09-09T05:11:02.945Z,21.09
2022-09-09T05:13:32.485Z,21.03
2022-09-09T05:16:00.260Z,21.09
2022-09-09T05:18:27.889Z,21.10
2022-09-09T05:21:02.072Z,21.07
2022-09-09T05:23:31.002Z,21.08
2022-09-09T05:25:58.815Z,21.04
2022-09-09T05:28:27.432Z,21.06
2022-09-09T05:30:59.351Z,21.03
2022-09-09T05:33:27.731Z,21.08
2022-09-09T05:35:59.745Z,21.07
2022-09-09T05:38:38.216Z,21.08
2022-09-09T05:41:07.891Z,21.11
2022-09-09T05:43:36.919Z,21.13
2022-09-09T05:46:06.235Z,21.11
2022-09-09T05:48:35.820Z,21.13
2022-09-09T05:51:03.726Z,21.16
2022-09-09T05:53:33.089Z,21.14
2022-09-09T05:56:02.753Z,21.18
2022-09-09T05:58:32.069Z,21.16
2022-09-09T06:01:04.171Z,21.13
2022-09-09T06:03:31.948Z,21.12
2022-09-09T06:06:00.689Z,21.07
2022-09-09T06:08:28.409Z,20.98
2022-09-09T06:10:57.344Z,21.03
2022-09-09T06:13:25.248Z,21.01
2022-09-09T06:15:54.519Z,21.00
2022-09-09T06:18:22.536Z,21.01
2022-09-09T06:20:57.749Z,21.02
2022-09-09T06:23:25.663Z,20.99
2022-09-09T06:25:53.455Z,21.00
2022-09-09T06:28:21.039Z,20.97
2022-09-09T06:30:48.663Z,20.99
2022-09-09T06:33:27.240Z,21.00
2022-09-09T06:35:55.097Z,21.01
2022-09-09T06:38:24.201Z,20.91
2022-09-09T06:40:56.653Z,20.86
2022-09-09T06:43:24.303Z,20.92
2022-09-09T06:45:56.105Z,20.91
2022-09-09T06:48:23.837Z,21.01
2022-09-09T06:50:52.830Z,21.00
2022-09-09T06:53:23.232Z,21.02
2022-09-09T06:55:50.887Z,21.03
2022-09-09T06:58:19.160Z,21.08
2022-09-09T07:00:46.759Z,21.15
2022-09-09T07:03:14.519Z,21.33
2022-09-09T07:05:42.092Z,21.58
2022-09-09T07:08:11.111Z,21.67
2022-09-09T07:10:38.702Z,21.65
2022-09-09T07:13:06.851Z,21.58
2022-09-09T07:15:34.658Z,21.68
2022-09-09T07:18:03.555Z,21.76
2022-09-09T07:20:31.219Z,21.99
2022-09-09T07:22:59.386Z,22.42
2022-09-09T07:25:29.904Z,22.60
2022-09-09T07:27:58.166Z,22.80
2022-09-09T07:30:27.888Z,23.11
2022-09-09T07:32:58.094Z,23.93
2022-09-09T07:35:25.935Z,24.78
2022-09-09T07:37:53.624Z,25.27
2022-09-09T07:40:22.694Z,25.28
2022-09-09T07:42:51.812Z,25.09
2022-09-09T07:45:19.511Z,24.74
2022-09-09T07:47:47.444Z,24.41
2022-09-09T07:50:16.049Z,24.14
2022-09-09T07:52:43.737Z,23.96
2022-09-09T07:55:11.657Z,23.84
2022-09-09T07:57:39.529Z,23.77
2022-09-09T08:00:11.289Z,23.77
2022-09-09T08:02:38.965Z,23.83
2022-09-09T08:05:07.037Z,23.95
2022-09-09T08:07:35.270Z,24.04
2022-09-09T08:10:02.975Z,24.40
2022-09-09T08:12:30.628Z,25.43
2022-09-09T08:14:58.251Z,26.46
2022-09-09T08:17:27.779Z,26.97
2022-09-09T08:19:56.097Z,27.15
2022-09-09T08:22:25.445Z,27.54
2022-09-09T08:24:56.616Z,27.99
2022-09-09T08:27:25.166Z,29.06
2022-09-09T08:29:53.063Z,29.72
2022-09-09T08:32:20.977Z,30.49
2022-09-09T08:34:54.633Z,31.29
2022-09-09T08:37:22.534Z,31.53
2022-09-09T08:39:53.964Z,31.68
2022-09-09T08:42:40.369Z,32.15
2022-09-09T08:45:24.081Z,32.85
2022-09-09T08:47:58.024Z,32.85
2022-09-09T08:50:28.907Z,31.69
2022-09-09T08:52:59.371Z,31.19
2022-09-09T08:55:30.832Z,30.51
2022-09-09T08:58:01.885Z,29.94
2022-09-09T09:00:36.343Z,29.21
2022-09-09T09:03:10.160Z,28.46
2022-09-09T09:05:42.304Z,28.00
2022-09-09T09:08:13.522Z,27.69
2022-09-09T09:10:47.824Z,27.41
2022-09-09T09:13:21.969Z,27.19
2022-09-09T09:15:52.450Z,26.88
2022-09-09T09:18:20.680Z,26.67
2022-09-09T09:21:00.582Z,26.30
2022-09-09T09:23:36.484Z,25.90
2022-09-09T09:26:31.451Z,25.74
2022-09-09T09:28:59.122Z,25.72
2022-09-09T09:31:28.028Z,25.51
2022-09-09T09:33:56.213Z,25.65
2022-09-09T09:36:27.105Z,25.74
2022-09-09T09:41:44.715Z,26.84
2022-09-09T09:44:24.500Z,27.25
2022-09-09T09:46:52.152Z,27.63
2022-09-09T09:49:20.001Z,27.63
2022-09-09T09:51:49.051Z,27.65
2022-09-09T09:54:21.418Z,27.54
2022-09-09T09:56:51.652Z,27.52
2022-09-09T09:59:38.824Z,27.00
2022-09-09T10:02:18.321Z,26.96
2022-09-09T10:04:47.319Z,27.02
2022-09-09T10:07:20.028Z,26.78
2022-09-09T10:09:48.507Z,26.47
2022-09-09T10:12:22.046Z,26.22
2022-09-09T10:14:53.425Z,26.65
2022-09-09T10:17:24.421Z,26.52
2022-09-09T10:19:59.910Z,26.87
2022-09-09T10:22:29.411Z,27.47
2022-09-09T10:25:07.074Z,28.64
2022-09-09T10:27:39.004Z,30.25
2022-09-09T10:30:11.888Z,31.15
2022-09-09T10:32:43.883Z,31.11
2022-09-09T10:35:14.202Z,30.71
2022-09-09T10:38:11.874Z,30.16
2022-09-09T10:40:41.331Z,29.73
2022-09-09T10:43:15.404Z,29.77
2022-09-09T10:45:49.400Z,31.25
2022-09-09T10:48:25.453Z,32.00
2022-09-09T10:51:03.571Z,31.62
2022-09-09T10:53:39.747Z,31.21
2022-09-09T10:56:09.099Z,30.25
2022-09-09T10:58:40.102Z,30.11
2022-09-09T11:01:11.989Z,30.12
2022-09-09T11:03:43.118Z,30.10
2022-09-09T11:06:31.127Z,29.95
2022-09-09T11:09:00.927Z,30.37
2022-09-09T11:11:48.958Z,30.31
2022-09-09T11:14:19.947Z,30.19
2022-09-09T11:16:50.087Z,30.25
2022-09-09T11:19:22.239Z,30.55
2022-09-09T11:21:50.706Z,30.76
2022-09-09T11:24:23.660Z,30.90
2022-09-09T11:26:53.535Z,31.14
2022-09-09T11:29:53.417Z,31.05
2022-09-09T11:32:42.148Z,30.51
2022-09-09T11:35:19.873Z,30.14
2022-09-09T11:37:56.613Z,29.86
2022-09-09T11:40:27.125Z,29.88
2022-09-09T11:43:05.356Z,29.65
2022-09-09T11:45:33.222Z,29.28
2022-09-09T11:48:01.864Z,28.64
2022-09-09T11:50:32.022Z,28.21
2022-09-09T11:53:24.544Z,28.12
2022-09-09T11:56:13.954Z,27.68
2022-09-09T11:58:43.579Z,27.08
2022-09-09T12:01:39.851Z,27.09
2022-09-09T12:04:28.847Z,26.56
2022-09-09T12:06:58.534Z,26.28
2022-09-09T12:09:30.104Z,26.18
2022-09-09T12:12:23.555Z,26.28
2022-09-09T12:15:21.689Z,26.53
2022-09-09T12:17:51.389Z,26.74
2022-09-09T12:20:20.590Z,27.07
2022-09-09T12:22:58.737Z,27.25
2022-09-09T12:25:31.567Z,27.13
2022-09-09T12:28:07.633Z,27.33
2022-09-09T12:30:37.824Z,26.90
2022-09-09T12:33:10.939Z,26.99
2022-09-09T12:35:39.630Z,26.86
2022-09-09T12:38:12.224Z,26.68
2022-09-09T12:40:40.572Z,26.53
2022-09-09T12:43:20.763Z,26.18
2022-09-09T12:45:49.725Z,26.36
2022-09-09T12:48:17.896Z,26.25
2022-09-09T12:50:47.239Z,26.58
2022-09-09T12:53:26.137Z,26.74
2022-09-09T12:55:55.087Z,26.95
2022-09-09T12:58:24.104Z,26.92
2022-09-09T13:00:53.178Z,26.82
2022-09-09T13:03:22.194Z,26.58
2022-09-09T13:05:50.054Z,26.82
2022-09-09T13:08:21.393Z,26.86
2022-09-09T13:10:53.654Z,26.86
2022-09-09T13:13:25.664Z,27.04
2022-09-09T13:15:54.708Z,26.71
2022-09-09T13:18:23.993Z,26.69
2022-09-09T13:20:52.128Z,26.41
2022-09-09T13:23:20.618Z,26.16
2022-09-09T13:25:55.638Z,25.98
2022-09-09T13:28:26.506Z,25.85
2022-09-09T13:31:03.315Z,25.66
2022-09-09T13:33:33.078Z,25.38
2022-09-09T13:36:01.636Z,25.33
2022-09-09T13:38:29.862Z,25.20
2022-09-09T13:41:04.210Z,25.32
2022-09-09T13:43:34.201Z,25.36
2022-09-09T13:46:03.269Z,25.47
2022-09-09T13:48:36.999Z,25.50
2022-09-09T13:51:06.160Z,25.61
2022-09-09T13:53:34.044Z,25.73
2022-09-09T13:56:02.601Z,25.82
2022-09-09T13:58:30.887Z,26.00
2022-09-09T14:01:00.166Z,26.09
2022-09-09T14:03:27.922Z,26.19
2022-09-09T14:05:55.774Z,26.41
2022-09-09T14:08:26.281Z,26.41
2022-09-09T14:10:59.276Z,26.73
2022-09-09T14:13:26.999Z,26.69
2022-09-09T14:15:54.654Z,26.70
2022-09-09T14:18:26.244Z,26.73
2022-09-09T14:20:54.177Z,26.72
2022-09-09T14:23:22.972Z,26.55
2022-09-09T14:25:50.983Z,26.47
2022-09-09T14:28:20.477Z,26.39
2022-09-09T14:30:53.704Z,26.24
2022-09-09T14:33:22.817Z,26.05
2022-09-09T14:35:50.446Z,25.93
2022-09-09T14:38:19.303Z,25.91
2022-09-09T14:40:47.792Z,25.62
2022-09-09T14:43:15.756Z,25.91
2022-09-09T14:45:44.309Z,25.82
2022-09-09T14:48:11.933Z,25.73
2022-09-09T14:50:40.976Z,25.61
2022-09-09T14:53:09.611Z,25.23
2022-09-09T14:55:37.471Z,24.98
2022-09-09T14:58:05.366Z,24.57
2022-09-09T15:00:33.008Z,24.12
2022-09-09T15:03:00.674Z,23.75
2022-09-09T15:05:29.443Z,23.42
2022-09-09T15:07:59.495Z,23.16
2022-09-09T15:10:27.460Z,23.02
2022-09-09T15:12:55.125Z,22.85
2022-09-09T15:15:22.708Z,22.74
2022-09-09T15:17:50.353Z,22.69
2022-09-09T15:20:18.183Z,22.68
2022-09-09T15:22:45.825Z,22.65
2022-09-09T15:25:14.975Z,22.53
2022-09-09T15:27:42.594Z,22.42
2022-09-09T15:30:11.549Z,22.17
2022-09-09T15:32:40.602Z,22.37
2022-09-09T15:35:21.262Z,22.37
2022-09-09T15:37:49.032Z,22.40
2022-09-09T15:40:18.060Z,22.43
2022-09-09T15:42:47.135Z,22.44
2022-09-09T15:45:16.112Z,22.50
2022-09-09T15:47:44.508Z,22.53
2022-09-09T15:50:12.752Z,22.62
2022-09-09T15:52:40.513Z,22.73
2022-09-09T15:55:09.176Z,22.81
2022-09-09T15:57:38.203Z,22.86
2022-09-09T16:00:07.096Z,22.89
2022-09-09T16:02:35.073Z,22.96
2022-09-09T16:05:03.136Z,22.96
2022-09-09T16:07:30.792Z,22.93
2022-09-09T16:09:58.441Z,22.95
2022-09-09T16:12:27.169Z,22.94
2022-09-09T16:14:56.783Z,22.89
2022-09-09T16:17:24.424Z,22.85
2022-09-09T16:19:56.171Z,22.78
2022-09-09T16:22:24.687Z,22.77
2022-09-09T16:24:52.468Z,22.72
2022-09-09T16:27:20.182Z,22.66
2022-09-09T16:29:47.955Z,22.65
2022-09-09T16:32:17.361Z,22.39
2022-09-09T16:34:46.780Z,22.59
2022-09-09T16:37:14.469Z,22.63
2022-09-09T16:39:42.202Z,22.67
2022-09-09T16:42:10.660Z,22.72
2022-09-09T16:44:38.455Z,22.71
2022-09-09T16:47:06.505Z,22.56
2022-09-09T16:52:03.713Z,22.63
2022-09-09T16:54:31.605Z,22.66
2022-09-09T16:56:59.565Z,22.68
2022-09-09T16:59:29.768Z,22.71
2022-09-09T17:01:57.517Z,22.74
2022-09-09T17:04:28.685Z,22.74
2022-09-09T17:06:56.757Z,22.57
2022-09-09T17:09:29.637Z,22.66
2022-09-09T17:11:57.263Z,22.68
2022-09-09T17:14:25.369Z,22.67
2022-09-09T17:16:53.166Z,22.68
2022-09-09T17:19:20.922Z,22.65
2022-09-09T17:22:14.805Z,22.64
2022-09-09T17:24:39.494Z,22.63
2022-09-09T17:27:07.390Z,22.60
2022-09-09T17:29:36.938Z,22.54
2022-09-09T17:32:06.304Z,22.49
2022-09-09T17:34:34.087Z,22.43
2022-09-09T17:37:01.846Z,22.37
2022-09-09T17:39:29.855Z,22.31
2022-09-09T17:41:58.915Z,22.25
2022-09-09T17:44:27.249Z,22.24
2022-09-09T17:46:55.432Z,22.20
2022-09-09T17:49:23.120Z,22.16
2022-09-09T17:51:50.733Z,22.06
2022-09-09T17:54:19.193Z,21.98
2022-09-09T17:56:47.814Z,21.89
2022-09-09T17:59:17.593Z,21.82
2022-09-09T18:01:45.975Z,21.78
2022-09-09T18:04:14.976Z,21.72
2022-09-09T18:06:43.750Z,21.64
2022-09-09T18:09:13.174Z,21.50
2022-09-09T18:11:43.878Z,21.42
2022-09-09T18:14:12.605Z,21.22
2022-09-09T18:16:41.674Z,21.28
2022-09-09T18:19:13.615Z,21.13
2022-09-09T18:21:41.840Z,21.15
2022-09-09T18:24:10.566Z,21.03
2022-09-09T18:26:39.236Z,21.06
2022-09-09T18:29:07.758Z,20.89
2022-09-09T18:31:35.627Z,20.94
2022-09-09T18:34:05.045Z,20.90
2022-09-09T18:36:35.113Z,20.56
2022-09-09T18:39:03.526Z,20.87
2022-09-09T18:41:32.380Z,20.86
2022-09-09T18:44:00.498Z,20.86
2022-09-09T18:46:28.978Z,20.83
2022-09-09T18:48:57.016Z,20.82
2022-09-09T18:51:27.392Z,20.68
2022-09-09T18:53:56.937Z,20.80
2022-09-09T18:56:24.719Z,20.74
2022-09-09T18:58:53.238Z,20.75
2022-09-09T19:01:20.877Z,20.78
2022-09-09T19:03:48.843Z,20.81
2022-09-09T19:06:17.627Z,20.86
2022-09-09T19:08:48.513Z,20.87
2022-09-09T19:11:19.865Z,20.60
2022-09-09T19:13:51.327Z,20.87
2022-09-09T19:16:19.338Z,20.99
2022-09-09T19:18:48.247Z,20.99
2022-09-09T19:21:18.272Z,20.99
2022-09-09T19:23:47.535Z,20.98
2022-09-09T19:26:17.034Z,20.94
2022-09-09T19:28:45.806Z,20.98
2022-09-09T19:31:15.533Z,20.96
2022-09-09T19:33:45.436Z,20.90
2022-09-09T19:36:13.140Z,20.53
2022-09-09T19:38:42.763Z,20.80
2022-09-09T19:41:13.600Z,20.71
2022-09-09T19:43:41.267Z,20.72
2022-09-09T19:46:11.452Z,20.57
2022-09-09T19:48:40.615Z,20.66
2022-09-09T19:51:09.278Z,20.43
2022-09-09T19:53:38.669Z,20.65
2022-09-09T19:56:09.400Z,20.70
2022-09-09T19:58:39.926Z,20.53
2022-09-09T20:01:10.517Z,20.77
2022-09-09T20:03:39.136Z,20.78
2022-09-09T20:06:07.392Z,20.81
2022-09-09T20:08:35.474Z,20.83
2022-09-09T20:11:03.487Z,20.89
2022-09-09T20:13:31.972Z,20.88
2022-09-09T20:16:01.847Z,20.89
2022-09-09T20:18:31.166Z,20.61
2022-09-09T20:21:00.828Z,20.57
2022-09-09T20:23:29.089Z,20.95
2022-09-09T20:25:57.139Z,20.89
2022-09-09T20:28:27.466Z,19.62
2022-09-09T20:30:55.364Z,20.21
2022-09-09T20:33:25.603Z,21.03
2022-09-09T20:35:54.049Z,20.46
2022-09-09T20:38:23.246Z,21.05
2022-09-09T20:40:52.237Z,19.76
2022-09-09T20:43:23.669Z,21.04
2022-09-09T20:45:53.792Z,20.78
2022-09-09T20:48:22.009Z,21.13
2022-09-09T20:50:54.132Z,19.27
2022-09-09T20:53:23.172Z,19.36
2022-09-09T20:55:51.768Z,19.26
2022-09-09T20:58:19.901Z,21.14
2022-09-09T21:00:49.244Z,21.15
2022-09-09T21:03:17.610Z,18.83
2022-09-09T21:05:45.448Z,21.15
2022-09-09T21:08:14.986Z,20.48
2022-09-09T21:10:46.942Z,19.91
2022-09-09T21:13:14.833Z,21.17
2022-09-09T21:15:42.677Z,19.68
2022-09-09T21:18:11.225Z,20.21
2022-09-09T21:20:39.182Z,18.89
2022-09-09T21:23:07.682Z,20.29
2022-09-09T21:25:37.162Z,18.87
2022-09-09T21:28:05.847Z,20.29
2022-09-09T21:30:41.873Z,18.52
2022-09-09T21:33:11.612Z,19.47
2022-09-09T21:35:40.016Z,19.72
2022-09-09T21:38:07.902Z,19.51
2022-09-09T21:40:39.355Z,19.84
2022-09-09T21:43:08.307Z,20.51
2022-09-09T21:45:36.120Z,21.25
2022-09-09T21:48:07.241Z,20.16
2022-09-09T21:50:37.244Z,19.59
2022-09-09T21:53:05.083Z,19.59
2022-09-09T21:55:43.330Z,20.30
2022-09-09T21:58:11.636Z,20.14
2022-09-09T22:00:42.342Z,20.01
2022-09-09T22:03:10.309Z,20.87
2022-09-09T22:05:40.966Z,20.22
2022-09-09T22:08:09.140Z,20.77
2022-09-09T22:10:38.072Z,18.14
2022-09-09T22:13:07.368Z,20.41
2022-09-09T22:15:37.337Z,20.46
2022-09-09T22:18:05.830Z,20.07
2022-09-09T22:20:34.293Z,20.10
2022-09-09T22:23:02.330Z,19.67
2022-09-09T22:25:38.076Z,20.64
2022-09-09T22:28:08.230Z,20.12
2022-09-09T22:30:37.949Z,19.53
2022-09-09T22:33:06.148Z,19.79
2022-09-09T22:35:34.072Z,20.15
2022-09-09T22:38:02.188Z,20.40
2022-09-09T22:40:30.055Z,20.62
2022-09-09T22:42:57.949Z,20.32
2022-09-09T22:45:45.486Z,19.23
2022-09-09T22:48:13.339Z,20.41
2022-09-09T22:53:15.868Z,20.75
2022-09-09T22:55:43.583Z,20.77
2022-09-09T22:58:11.739Z,20.78
2022-09-09T23:00:40.121Z,20.71
2022-09-09T23:03:09.098Z,20.75
2022-09-09T23:05:38.492Z,20.77
2022-09-09T23:08:06.256Z,20.80
2022-09-09T23:10:34.056Z,20.84
2022-09-09T23:13:01.681Z,20.35
2022-09-09T23:15:31.370Z,20.88
2022-09-09T23:17:59.023Z,20.91
2022-09-09T23:20:28.195Z,20.91
2022-09-09T23:22:55.889Z,20.79
2022-09-09T23:25:23.829Z,20.92
2022-09-09T23:27:51.479Z,20.96
2022-09-09T23:30:20.419Z,20.98
2022-09-09T23:32:49.713Z,20.93
2022-09-09T23:35:17.519Z,20.98
2022-09-09T23:37:46.625Z,20.99
2022-09-09T23:40:14.392Z,20.98
2022-09-09T23:42:42.161Z,20.97
2022-09-09T23:45:11.120Z,20.96
2022-09-09T23:47:38.910Z,20.76
2022-09-09T23:50:08.336Z,20.88
2022-09-09T23:52:36.982Z,20.15
2022-09-09T23:55:08.643Z,20.83
2022-09-09T23:57:36.244Z,20.83
